Time;durP1;ratioP1;P1;durP2;ratioP2;P2;SDS_P1;SDS_P2;PMS_P1;PMS_P2;Temp;Humidity;BMP_temperature;BMP_pressure;BME280_temperature;BME280_humidity;BME280_pressure;Samples;Min_cycle;Max_cycle;Signal;HPM_P1;HPM_P2
2023/09/28 00:00:37;;;;;;;5.65;3.13;;;16.70;99.90;;;;;;4991512;28;20034;-73
2023/09/28 00:03:08;;;;;;;8.20;3.00;;;16.60;99.90;;;;;;4993359;28;20022;-73
2023/09/28 00:05:34;;;;;;;8.77;3.47;;;16.60;99.90;;;;;;4989427;28;20077;-73
2023/09/28 00:08:01;;;;;;;7.55;3.08;;;16.50;99.90;;;;;;4993597;28;20035;-74
2023/09/28 00:10:27;;;;;;;10.77;4.35;;;16.60;99.90;;;;;;4993366;28;20032;-73
2023/09/28 00:12:54;;;;;;;12.60;3.97;;;16.50;99.90;;;;;;4996579;28;20034;-73
2023/09/28 00:15:21;;;;;;;11.60;3.88;;;16.40;99.90;;;;;;4991574;28;20042;-74
2023/09/28 00:17:47;;;;;;;8.43;4.45;;;16.30;99.90;;;;;;4989371;28;20112;-73
2023/09/28 00:20:17;;;;;;;6.70;3.90;;;16.40;99.90;;;;;;4993629;28;20030;-73
2023/09/28 00:22:47;;;;;;;11.90;3.17;;;16.50;99.90;;;;;;4989747;28;20058;-73
2023/09/28 00:25:16;;;;;;;9.80;3.92;;;16.30;99.90;;;;;;4999067;28;20052;-72
2023/09/28 00:27:47;;;;;;;11.43;3.60;;;16.60;99.90;;;;;;4995418;28;20446;-73
2023/09/28 00:30:22;;;;;;;11.30;4.40;;;16.60;99.90;;;;;;4996846;28;20153;-73
2023/09/28 00:32:50;;;;;;;9.20;3.88;;;16.40;99.90;;;;;;4997870;28;20642;-73
2023/09/28 00:35:17;;;;;;;6.57;3.35;;;16.20;99.90;;;;;;4996319;28;20572;-73
2023/09/28 00:37:43;;;;;;;10.35;4.00;;;16.10;99.90;;;;;;5004639;28;20036;-73
2023/09/28 00:40:21;;;;;;;5.88;3.67;;;16.00;99.90;;;;;;5002923;28;20030;-73
2023/09/28 00:42:49;;;;;;;7.85;3.85;;;16.10;99.90;;;;;;4995662;28;20115;-73
2023/09/28 00:45:15;;;;;;;9.63;3.35;;;16.20;99.90;;;;;;4999149;28;20169;-73
2023/09/28 00:47:42;;;;;;;9.48;3.88;;;16.20;99.90;;;;;;5000910;28;20026;-72
2023/09/28 00:50:17;;;;;;;9.40;3.25;;;16.30;99.90;;;;;;4999033;28;20027;-73
2023/09/28 00:52:54;;;;;;;8.07;4.13;;;16.00;99.90;;;;;;4992127;28;20041;-73
2023/09/28 00:55:20;;;;;;;7.32;3.05;;;15.90;99.90;;;;;;5003302;28;20030;-73
2023/09/28 00:57:47;;;;;;;5.47;3.15;;;15.90;99.90;;;;;;4995085;28;20034;-73
2023/09/28 01:00:32;;;;;;;9.45;3.75;;;15.70;99.90;;;;;;4999678;28;20575;-72
2023/09/28 01:03:00;;;;;;;5.18;3.08;;;15.70;99.90;;;;;;4994222;28;20060;-73
2023/09/28 01:05:31;;;;;;;12.20;4.68;;;15.80;99.90;;;;;;4991977;28;20436;-73
2023/09/28 01:08:05;;;;;;;9.20;4.05;;;16.00;99.90;;;;;;4997936;28;20177;-73
2023/09/28 01:10:35;;;;;;;7.00;3.90;;;16.10;99.90;;;;;;4997000;28;20476;-73
2023/09/28 01:13:11;;;;;;;10.88;4.78;;;15.90;99.90;;;;;;4992798;28;20546;-72
2023/09/28 01:15:41;;;;;;;9.85;3.80;;;15.70;99.90;;;;;;4998734;28;20022;-74
2023/09/28 01:18:12;;;;;;;8.43;3.28;;;15.50;99.90;;;;;;4996749;28;20388;-73
2023/09/28 01:20:39;;;;;;;9.60;3.58;;;15.50;99.90;;;;;;5000884;28;20030;-73
2023/09/28 01:23:05;;;;;;;8.10;3.60;;;15.50;99.90;;;;;;4993526;28;20038;-73
2023/09/28 01:25:32;;;;;;;5.75;3.20;;;15.60;99.90;;;;;;4995975;28;20034;-73
2023/09/28 01:27:57;;;;;;;8.70;3.45;;;15.60;99.90;;;;;;5000350;28;20042;-73
2023/09/28 01:30:23;;;;;;;10.07;3.65;;;15.50;99.90;;;;;;5005495;28;20022;-73
2023/09/28 01:32:50;;;;;;;7.65;3.45;;;15.60;99.90;;;;;;4990599;28;20392;-72
2023/09/28 01:35:16;;;;;;;11.63;3.22;;;15.70;99.90;;;;;;4998980;28;20369;-73
2023/09/28 01:38:13;;;;;;;7.43;3.45;;;15.60;99.90;;;;;;5004079;28;20026;-72
2023/09/28 01:40:40;;;;;;;10.65;3.55;;;15.70;99.90;;;;;;4990384;28;20996;-72
2023/09/28 01:43:06;;;;;;;8.88;4.25;;;15.60;99.90;;;;;;5000663;28;20107;-72
2023/09/28 01:45:32;;;;;;;10.18;3.20;;;15.60;99.90;;;;;;5001031;28;20472;-72
2023/09/28 01:47:58;;;;;;;8.98;3.65;;;15.50;99.90;;;;;;4997787;28;20057;-72
2023/09/28 01:50:23;;;;;;;8.25;3.35;;;15.50;99.90;;;;;;5002162;28;20026;-74
2023/09/28 01:52:49;;;;;;;8.77;4.18;;;15.50;99.90;;;;;;4992121;28;20410;-72
2023/09/28 01:55:15;;;;;;;8.23;3.92;;;15.50;99.90;;;;;;4995394;28;20034;-72
2023/09/28 01:57:40;;;;;;;13.15;4.90;;;15.50;99.90;;;;;;4998150;28;20137;-72
2023/09/28 02:00:20;;;;;;;6.43;3.42;;;15.50;99.90;;;;;;4992642;28;20495;-73
2023/09/28 02:02:46;;;;;;;9.27;4.07;;;15.80;99.90;;;;;;4992751;28;20072;-73
2023/09/28 02:05:16;;;;;;;9.38;4.45;;;15.80;99.90;;;;;;5009342;28;20388;-74
2023/09/28 02:07:44;;;;;;;9.52;4.07;;;15.70;99.90;;;;;;5002915;28;20081;-73
2023/09/28 02:10:10;;;;;;;7.80;3.53;;;15.40;99.90;;;;;;4994666;28;20026;-72
2023/09/28 02:12:44;;;;;;;8.52;4.40;;;15.40;99.90;;;;;;5003957;28;20037;-72
2023/09/28 02:15:10;;;;;;;6.85;3.90;;;15.40;99.90;;;;;;4998357;28;20025;-72
2023/09/28 02:17:36;;;;;;;10.00;4.32;;;15.30;99.90;;;;;;4997936;28;20032;-73
2023/09/28 02:20:08;;;;;;;9.98;3.80;;;15.40;99.90;;;;;;4999360;28;20048;-74
2023/09/28 02:22:35;;;;;;;10.25;4.03;;;15.30;99.90;;;;;;5002622;28;20029;-72
2023/09/28 02:25:01;;;;;;;9.80;4.10;;;15.30;99.90;;;;;;5006058;28;20393;-72
2023/09/28 02:27:26;;;;;;;8.75;4.15;;;15.40;99.90;;;;;;4993586;28;20030;-73
2023/09/28 02:29:53;;;;;;;8.25;3.67;;;15.40;99.90;;;;;;5001535;28;20037;-73
2023/09/28 02:32:18;;;;;;;7.88;4.07;;;15.30;99.90;;;;;;4997789;28;20100;-72
2023/09/28 02:34:44;;;;;;;11.68;3.97;;;15.30;99.90;;;;;;4996207;28;20468;-73
2023/09/28 02:37:10;;;;;;;6.63;3.97;;;15.30;99.90;;;;;;4998732;28;20042;-73
2023/09/28 02:39:36;;;;;;;11.23;4.10;;;15.40;99.90;;;;;;4990202;28;20026;-74
2023/09/28 02:42:07;;;;;;;9.05;3.78;;;15.30;99.90;;;;;;4991024;28;20031;-72
2023/09/28 02:44:34;;;;;;;8.02;3.80;;;15.30;99.90;;;;;;5003471;28;20185;-73
2023/09/28 02:47:03;;;;;;;7.53;3.60;;;15.40;99.90;;;;;;4995899;28;20049;-73
2023/09/28 02:49:29;;;;;;;8.52;3.72;;;15.40;99.90;;;;;;4997280;28;20030;-73
2023/09/28 02:51:55;;;;;;;10.85;3.38;;;15.40;99.90;;;;;;4998154;28;20034;-73
2023/09/28 02:54:21;;;;;;;9.52;4.00;;;15.70;99.90;;;;;;4997042;28;20058;-73
2023/09/28 02:56:47;;;;;;;12.10;3.60;;;15.90;99.90;;;;;;4998287;28;20021;-73
2023/09/28 02:59:21;;;;;;;7.60;4.03;;;15.70;99.90;;;;;;4991516;28;20073;-73
2023/09/28 03:01:51;;;;;;;8.80;4.63;;;15.50;99.90;;;;;;4997676;28;20022;-73
2023/09/28 03:04:17;;;;;;;8.63;4.10;;;15.30;99.90;;;;;;4984792;28;20049;-72
2023/09/28 03:06:44;;;;;;;11.57;4.13;;;15.50;99.90;;;;;;4989214;28;20033;-73
2023/09/28 03:09:16;;;;;;;10.65;4.22;;;15.60;99.90;;;;;;4993257;28;20030;-73
2023/09/28 03:11:42;;;;;;;15.02;4.43;;;15.60;99.90;;;;;;4985775;28;20113;-72
2023/09/28 03:14:08;;;;;;;10.52;3.75;;;15.50;99.90;;;;;;4984264;28;20211;-74
2023/09/28 03:16:34;;;;;;;7.47;4.30;;;15.50;99.90;;;;;;4991563;28;20132;-73
2023/09/28 03:19:00;;;;;;;8.95;4.68;;;15.30;99.90;;;;;;4981633;28;20459;-73
2023/09/28 03:21:29;;;;;;;9.02;4.88;;;15.10;99.90;;;;;;4981239;28;20046;-72
2023/09/28 03:23:57;;;;;;;11.10;5.10;;;15.00;99.90;;;;;;4990021;28;20038;-71
2023/09/28 03:26:23;;;;;;;9.18;4.50;;;14.90;99.90;;;;;;4990032;28;20411;-72
2023/09/28 03:28:49;;;;;;;10.98;5.15;;;14.80;99.90;;;;;;4987928;28;20022;-72
2023/09/28 03:31:14;;;;;;;10.75;4.95;;;14.70;99.90;;;;;;4991011;28;20021;-72
2023/09/28 03:33:40;;;;;;;8.70;4.80;;;14.70;99.90;;;;;;4999597;28;20042;-72
2023/09/28 03:36:06;;;;;;;7.90;3.95;;;14.80;99.90;;;;;;4994840;28;20029;-72
2023/09/28 03:38:32;;;;;;;8.50;4.05;;;14.90;99.90;;;;;;4995404;28;20030;-74
2023/09/28 03:40:58;;;;;;;7.82;4.55;;;15.00;99.90;;;;;;4993776;28;20026;-73
2023/09/28 03:43:24;;;;;;;7.53;4.18;;;15.00;99.90;;;;;;4995959;28;20619;-73
2023/09/28 03:45:50;;;;;;;11.23;4.57;;;15.00;99.90;;;;;;4989136;28;20257;-73
2023/09/28 03:48:16;;;;;;;11.02;5.15;;;15.00;99.90;;;;;;4993288;28;20021;-72
2023/09/28 03:50:42;;;;;;;9.95;4.75;;;15.10;99.90;;;;;;4998629;28;20030;-72
2023/09/28 03:53:07;;;;;;;8.30;4.80;;;15.10;99.90;;;;;;4987923;28;20033;-74
2023/09/28 03:55:33;;;;;;;6.68;3.80;;;14.90;99.90;;;;;;4997550;28;20022;-72
2023/09/28 03:58:01;;;;;;;10.60;4.50;;;14.90;99.90;;;;;;4991989;28;20041;-74
2023/09/28 04:00:27;;;;;;;6.43;3.33;;;14.90;99.90;;;;;;4992108;28;20093;-73
2023/09/28 04:02:53;;;;;;;9.27;3.85;;;15.00;99.90;;;;;;4984206;28;20034;-72
2023/09/28 04:05:19;;;;;;;8.40;4.43;;;15.00;99.90;;;;;;4995863;28;20534;-72
2023/09/28 04:07:45;;;;;;;10.10;5.05;;;15.00;99.90;;;;;;4986984;28;20038;-74
2023/09/28 04:10:11;;;;;;;10.57;4.88;;;15.00;99.90;;;;;;4988483;28;20034;-73
2023/09/28 04:12:37;;;;;;;11.77;5.28;;;15.00;99.90;;;;;;4994353;28;20045;-72
2023/09/28 04:15:04;;;;;;;10.10;4.40;;;14.90;99.90;;;;;;4988459;28;20030;-74
2023/09/28 04:17:30;;;;;;;13.82;5.18;;;14.80;99.90;;;;;;4981844;28;20109;-73
2023/09/28 04:19:55;;;;;;;9.63;4.15;;;14.80;99.90;;;;;;4986237;28;20109;-73
2023/09/28 04:22:21;;;;;;;11.15;4.45;;;14.70;99.90;;;;;;4990980;28;20021;-72
2023/09/28 04:24:47;;;;;;;6.60;3.97;;;14.70;99.90;;;;;;4993165;28;20034;-73
2023/09/28 04:27:12;;;;;;;8.40;4.03;;;14.90;99.90;;;;;;4989978;28;20034;-72
2023/09/28 04:29:38;;;;;;;8.75;4.95;;;15.10;99.90;;;;;;4987397;28;20037;-73
2023/09/28 04:32:04;;;;;;;12.40;4.22;;;15.30;99.90;;;;;;4994719;28;20026;-72
2023/09/28 04:34:30;;;;;;;7.10;3.70;;;15.30;99.90;;;;;;4988685;28;20070;-74
2023/09/28 04:36:57;;;;;;;7.30;4.10;;;15.30;99.90;;;;;;4990650;28;20527;-72
2023/09/28 04:39:24;;;;;;;9.10;4.40;;;15.30;99.90;;;;;;4991181;28;20033;-73
2023/09/28 04:41:53;;;;;;;11.60;4.53;;;15.30;99.90;;;;;;4980824;28;20090;-72
2023/09/28 04:44:20;;;;;;;7.28;4.13;;;15.30;99.90;;;;;;4982923;28;20465;-73
2023/09/28 04:46:46;;;;;;;9.82;4.70;;;15.30;99.90;;;;;;4988908;28;20614;-73
2023/09/28 04:49:12;;;;;;;10.60;5.00;;;15.20;99.90;;;;;;4983051;28;20109;-73
2023/09/28 04:51:38;;;;;;;11.48;5.30;;;15.20;99.90;;;;;;4990306;28;20080;-72
2023/09/28 04:54:04;;;;;;;8.32;3.92;;;15.20;99.90;;;;;;4994364;28;20127;-72
2023/09/28 04:56:32;;;;;;;7.63;4.50;;;15.10;99.90;;;;;;4988208;28;20035;-72
2023/09/28 04:58:59;;;;;;;10.60;4.18;;;15.10;99.90;;;;;;4992083;28;20858;-73
2023/09/28 05:01:25;;;;;;;8.13;4.22;;;15.20;99.90;;;;;;4987523;28;20026;-73
2023/09/28 05:03:51;;;;;;;11.02;4.57;;;15.30;99.90;;;;;;4982886;28;20030;-73
2023/09/28 05:06:16;;;;;;;7.53;4.28;;;15.30;99.90;;;;;;4994581;28;20064;-72
2023/09/28 05:08:43;;;;;;;10.00;4.13;;;15.20;99.90;;;;;;4997267;28;20038;-73
2023/09/28 05:11:09;;;;;;;9.75;4.75;;;15.20;99.90;;;;;;4983716;28;20023;-73
2023/09/28 05:13:35;;;;;;;10.80;4.82;;;15.10;99.90;;;;;;4993390;28;20042;-72
2023/09/28 05:16:00;;;;;;;14.45;5.75;;;14.90;99.90;;;;;;4998960;28;20030;-72
2023/09/28 05:18:26;;;;;;;8.93;5.05;;;14.80;99.90;;;;;;4984945;28;20048;-74
2023/09/28 05:20:52;;;;;;;8.50;5.43;;;14.70;99.90;;;;;;4987655;28;20527;-73
2023/09/28 05:23:18;;;;;;;9.57;5.47;;;14.70;99.90;;;;;;4985119;28;20039;-73
2023/09/28 05:25:44;;;;;;;12.68;5.25;;;14.70;99.90;;;;;;4993982;28;20042;-72
2023/09/28 05:28:10;;;;;;;8.70;5.28;;;14.80;99.90;;;;;;5003840;28;20034;-72
2023/09/28 05:30:36;;;;;;;8.93;5.20;;;14.80;99.90;;;;;;4988214;28;20034;-72
2023/09/28 05:33:02;;;;;;;8.48;5.07;;;14.80;99.90;;;;;;4992318;28;20034;-72
2023/09/28 05:35:29;;;;;;;7.25;4.13;;;14.80;99.90;;;;;;4990684;28;20600;-72
2023/09/28 05:37:55;;;;;;;11.77;4.07;;;14.80;99.90;;;;;;4983996;28;20030;-72
2023/09/28 05:40:21;;;;;;;9.48;5.15;;;14.90;99.90;;;;;;4984219;28;20036;-73
2023/09/28 05:42:48;;;;;;;10.13;4.63;;;15.00;99.90;;;;;;4990952;28;20018;-72
2023/09/28 05:45:14;;;;;;;10.20;5.30;;;14.90;99.90;;;;;;4990732;28;20035;-72
2023/09/28 05:47:40;;;;;;;10.00;4.90;;;14.90;99.90;;;;;;4990708;28;20022;-72
2023/09/28 05:50:11;;;;;;;12.07;5.78;;;14.90;99.90;;;;;;4996299;28;20052;-71
2023/09/28 05:52:37;;;;;;;10.18;5.25;;;14.90;99.90;;;;;;4989315;28;20030;-72
2023/09/28 05:55:02;;;;;;;6.80;4.13;;;14.90;99.90;;;;;;4988455;28;20038;-72
2023/09/28 05:57:28;;;;;;;6.78;4.78;;;15.10;99.90;;;;;;4995049;28;20476;-73
2023/09/28 05:59:54;;;;;;;11.00;4.25;;;15.30;99.90;;;;;;4991366;28;20038;-73
2023/09/28 06:02:20;;;;;;;10.43;4.07;;;15.30;99.90;;;;;;4992617;28;20046;-72
2023/09/28 06:04:45;;;;;;;8.23;4.70;;;15.40;99.90;;;;;;4988295;28;20566;-73
2023/09/28 06:07:12;;;;;;;13.80;5.40;;;15.40;99.90;;;;;;4994154;28;20557;-72
2023/09/28 06:09:38;;;;;;;7.72;4.78;;;15.20;99.90;;;;;;4998164;28;20035;-73
2023/09/28 06:12:06;;;;;;;11.88;6.28;;;15.20;99.90;;;;;;4986463;28;20038;-72
2023/09/28 06:14:32;;;;;;;9.07;4.35;;;15.30;99.90;;;;;;4996112;28;20022;-73
2023/09/28 06:16:58;;;;;;;8.13;4.70;;;15.40;99.90;;;;;;4993913;28;20092;-73
2023/09/28 06:19:24;;;;;;;9.75;5.15;;;15.40;99.90;;;;;;4989396;28;20037;-72
2023/09/28 06:21:49;;;;;;;9.20;4.65;;;15.40;99.90;;;;;;4993406;28;20038;-73
2023/09/28 06:24:15;;;;;;;9.85;5.20;;;15.50;99.90;;;;;;4977662;28;20037;-73
2023/09/28 06:26:41;;;;;;;12.10;5.50;;;15.40;99.90;;;;;;4991910;28;20085;-73
2023/09/28 06:29:07;;;;;;;8.80;4.55;;;15.30;99.90;;;;;;4996815;28;20033;-74
2023/09/28 06:31:33;;;;;;;8.85;4.25;;;15.50;99.90;;;;;;4993088;28;20093;-74
2023/09/28 06:33:59;;;;;;;10.98;5.18;;;15.60;99.90;;;;;;4991659;28;20041;-73
2023/09/28 06:36:25;;;;;;;6.63;4.95;;;15.60;99.90;;;;;;4994025;28;20057;-73
2023/09/28 06:38:51;;;;;;;9.68;5.70;;;15.70;99.90;;;;;;4989599;28;20377;-73
2023/09/28 06:41:17;;;;;;;10.05;5.85;;;15.60;99.90;;;;;;4988320;28;20052;-74
2023/09/28 06:43:43;;;;;;;11.75;5.65;;;15.50;99.90;;;;;;4989227;28;20035;-74
2023/09/28 06:46:09;;;;;;;9.25;5.15;;;15.40;99.90;;;;;;4990606;28;20044;-72
2023/09/28 06:48:37;;;;;;;11.30;5.50;;;15.60;99.90;;;;;;4986618;28;20603;-73
2023/09/28 06:51:04;;;;;;;9.02;4.80;;;15.80;99.90;;;;;;4992543;28;20022;-73
2023/09/28 06:53:30;;;;;;;10.52;4.93;;;15.90;99.90;;;;;;4990334;28;20054;-74
2023/09/28 06:55:59;;;;;;;11.15;4.85;;;15.90;99.90;;;;;;4984729;28;20105;-74
2023/09/28 06:58:25;;;;;;;8.55;4.55;;;15.90;99.90;;;;;;4990577;28;20125;-74
2023/09/28 07:00:52;;;;;;;8.80;4.20;;;16.00;99.90;;;;;;4987689;28;20030;-73
2023/09/28 07:03:19;;;;;;;9.77;5.70;;;16.10;99.90;;;;;;4992154;28;20070;-72
2023/09/28 07:05:45;;;;;;;9.60;5.22;;;16.30;99.90;;;;;;4993870;28;20030;-73
2023/09/28 07:08:11;;;;;;;10.32;4.82;;;16.30;99.90;;;;;;4990168;28;20026;-72
2023/09/28 07:10:37;;;;;;;9.88;4.82;;;16.30;99.90;;;;;;4992749;28;20484;-72
2023/09/28 07:13:05;;;;;;;12.45;5.22;;;16.30;99.90;;;;;;4996446;28;20467;-72
2023/09/28 07:15:36;;;;;;;9.95;4.80;;;16.50;99.90;;;;;;4992818;28;20033;-71
2023/09/28 07:18:03;;;;;;;9.80;5.25;;;16.60;99.90;;;;;;4991638;28;20034;-72
2023/09/28 07:20:30;;;;;;;13.45;5.10;;;16.50;99.90;;;;;;5001367;28;20133;-73
2023/09/28 07:22:55;;;;;;;10.38;5.22;;;16.50;99.90;;;;;;4992259;28;20499;-71
2023/09/28 07:25:22;;;;;;;7.88;4.72;;;16.50;99.90;;;;;;4987283;28;20042;-73
2023/09/28 07:27:52;;;;;;;13.32;5.72;;;16.30;99.90;;;;;;4997068;28;20112;-74
2023/09/28 07:30:22;;;;;;;12.07;6.50;;;16.40;99.90;;;;;;4995743;28;20030;-72
2023/09/28 07:32:49;;;;;;;13.02;5.97;;;16.70;99.90;;;;;;4992707;28;20034;-71
2023/09/28 07:35:16;;;;;;;8.75;5.63;;;16.80;99.90;;;;;;4983549;28;20061;-73
2023/09/28 07:37:43;;;;;;;10.55;5.20;;;16.90;99.90;;;;;;4990907;28;20066;-73
2023/09/28 07:40:12;;;;;;;10.13;5.47;;;16.90;99.90;;;;;;4991756;28;20034;-73
2023/09/28 07:42:39;;;;;;;8.93;5.88;;;17.00;99.90;;;;;;4990780;28;20027;-74
2023/09/28 07:45:05;;;;;;;14.95;5.55;;;17.00;99.90;;;;;;4994349;28;20480;-73
2023/09/28 07:47:31;;;;;;;19.15;6.30;;;17.10;99.90;;;;;;4994876;28;20038;-72
2023/09/28 07:49:56;;;;;;;13.73;6.03;;;17.10;99.90;;;;;;4997502;28;20093;-73
2023/09/28 07:52:23;;;;;;;11.63;6.13;;;17.20;99.90;;;;;;4996283;28;20026;-72
2023/09/28 07:54:48;;;;;;;13.05;6.47;;;17.20;99.90;;;;;;4991235;28;20472;-73
2023/09/28 07:57:14;;;;;;;10.77;6.70;;;17.20;99.90;;;;;;4995101;28;20049;-73
2023/09/28 07:59:40;;;;;;;11.60;6.05;;;17.20;99.90;;;;;;4990784;28;20129;-73
2023/09/28 08:02:09;;;;;;;11.80;6.55;;;17.30;99.90;;;;;;4990226;28;20030;-72
2023/09/28 08:04:38;;;;;;;15.95;7.43;;;17.30;99.90;;;;;;4991653;28;20669;-73
2023/09/28 08:07:04;;;;;;;13.27;5.95;;;17.30;99.90;;;;;;4983938;28;20022;-73
2023/09/28 08:09:32;;;;;;;13.45;5.75;;;17.30;99.90;;;;;;4991163;28;20041;-73
2023/09/28 08:11:58;;;;;;;11.55;5.68;;;17.40;99.90;;;;;;4989758;28;20068;-74
2023/09/28 08:14:24;;;;;;;12.68;5.03;;;17.50;99.90;;;;;;4984266;28;20423;-73
2023/09/28 08:16:50;;;;;;;10.98;5.60;;;17.50;99.90;;;;;;4988847;28;20038;-73
2023/09/28 08:19:16;;;;;;;12.38;5.32;;;17.50;99.90;;;;;;4991538;28;20030;-73
2023/09/28 08:21:42;;;;;;;13.65;6.13;;;17.50;99.90;;;;;;4980477;28;20105;-72
2023/09/28 08:24:10;;;;;;;10.30;4.50;;;17.60;99.90;;;;;;4987997;28;20038;-73
2023/09/28 08:26:36;;;;;;;15.30;6.68;;;17.70;99.90;;;;;;4982525;28;20117;-73
2023/09/28 08:29:03;;;;;;;8.30;4.97;;;17.70;99.90;;;;;;5002775;28;20022;-72
2023/09/28 08:31:32;;;;;;;11.10;5.18;;;17.70;99.90;;;;;;4991662;28;20039;-73
2023/09/28 08:33:59;;;;;;;11.15;5.13;;;17.70;99.90;;;;;;4986331;28;20026;-72
2023/09/28 08:36:25;;;;;;;8.07;5.18;;;17.70;99.90;;;;;;4987682;28;20030;-74
2023/09/28 08:38:51;;;;;;;12.80;5.43;;;17.80;99.90;;;;;;4991209;28;20054;-73
2023/09/28 08:41:26;;;;;;;10.10;5.00;;;17.90;99.90;;;;;;4997787;28;20527;-72
2023/09/28 08:44:02;;;;;;;11.85;5.43;;;17.90;99.90;;;;;;4984923;28;20110;-73
2023/09/28 08:46:30;;;;;;;8.80;5.57;;;17.90;99.90;;;;;;4994609;28;20105;-73
2023/09/28 08:48:59;;;;;;;9.80;6.13;;;18.00;99.90;;;;;;4984576;28;20042;-73
2023/09/28 08:51:25;;;;;;;8.57;4.93;;;18.00;99.90;;;;;;4995573;28;20029;-73
2023/09/28 08:53:54;;;;;;;11.98;5.10;;;18.10;99.90;;;;;;4984088;28;20077;-73
2023/09/28 08:56:20;;;;;;;10.75;5.32;;;18.10;99.90;;;;;;4997761;28;20373;-72
2023/09/28 08:58:46;;;;;;;11.80;5.72;;;18.00;99.90;;;;;;5000870;28;20042;-73
2023/09/28 09:01:12;;;;;;;9.07;5.43;;;18.00;99.90;;;;;;5006682;28;20048;-73
2023/09/28 09:03:40;;;;;;;11.50;4.93;;;18.00;99.90;;;;;;4986987;28;20528;-73
2023/09/28 09:06:09;;;;;;;8.48;5.50;;;18.00;99.90;;;;;;4993933;28;20048;-74
2023/09/28 09:08:35;;;;;;;10.52;5.70;;;18.00;99.90;;;;;;5001299;28;20184;-74
2023/09/28 09:11:01;;;;;;;8.10;5.05;;;18.10;99.90;;;;;;4990126;28;20114;-73
2023/09/28 09:13:29;;;;;;;12.23;6.25;;;18.10;99.90;;;;;;5003810;28;20018;-73
2023/09/28 09:15:55;;;;;;;11.65;5.28;;;18.20;99.90;;;;;;4999705;28;20037;-73
2023/09/28 09:18:24;;;;;;;8.38;4.22;;;18.30;99.90;;;;;;4995640;28;20385;-73
2023/09/28 09:20:56;;;;;;;8.48;5.07;;;18.40;99.90;;;;;;4990753;28;20424;-73
2023/09/28 09:23:22;;;;;;;10.15;5.25;;;18.60;99.90;;;;;;4992240;28;20072;-73
2023/09/28 09:25:53;;;;;;;11.43;5.78;;;19.00;99.90;;;;;;4996354;28;20052;-73
2023/09/28 09:28:32;;;;;;;11.27;5.70;;;19.00;99.90;;;;;;4997563;28;20226;-72
2023/09/28 09:30:58;;;;;;;8.40;5.65;;;19.20;99.90;;;;;;4996713;28;20042;-73
2023/09/28 09:33:28;;;;;;;11.68;5.00;;;19.40;99.90;;;;;;4992979;28;20369;-74
2023/09/28 09:35:54;;;;;;;8.35;5.22;;;19.40;99.90;;;;;;5005837;28;20052;-73
2023/09/28 09:38:38;;;;;;;10.98;5.35;;;19.40;99.90;;;;;;4998043;28;20025;-73
2023/09/28 09:41:08;;;;;;;14.05;5.95;;;19.30;99.90;;;;;;5003589;28;20187;-72
2023/09/28 09:43:35;;;;;;;8.02;5.22;;;19.40;99.90;;;;;;4991990;28;20022;-73
2023/09/28 09:46:09;;;;;;;13.70;6.07;;;19.30;99.90;;;;;;4990903;28;20077;-73
2023/09/28 09:48:44;;;;;;;;;;;19.40;99.90;;;;;;4994010;28;20097;-73
2023/09/28 09:51:13;;;;;;;;;;;19.30;99.90;;;;;;4996619;28;19932;-73
2023/09/28 09:53:41;;;;;;;11.55;5.50;;;19.40;99.90;;;;;;4989347;28;19910;-73
2023/09/28 09:56:08;;;;;;;12.23;5.45;;;19.50;99.90;;;;;;4995914;28;20030;-72
2023/09/28 09:58:39;;;;;;;9.07;5.25;;;19.30;99.90;;;;;;4994102;28;20052;-72
2023/09/28 10:01:12;;;;;;;12.13;5.65;;;19.10;99.90;;;;;;5000558;28;20038;-72
2023/09/28 10:04:03;;;;;;;12.93;5.90;;;19.30;99.90;;;;;;4987858;28;20034;-72
2023/09/28 10:06:28;;;;;;;11.43;5.40;;;19.30;99.90;;;;;;4988623;28;20052;-72
2023/09/28 10:08:54;;;;;;;9.95;5.45;;;19.40;99.90;;;;;;4986621;28;20559;-72
2023/09/28 10:11:21;;;;;;;9.23;5.13;;;19.50;99.90;;;;;;4986168;28;20030;-72
2023/09/28 10:13:49;;;;;;;9.25;5.03;;;19.70;99.90;;;;;;4985917;28;20050;-72
2023/09/28 10:16:17;;;;;;;13.82;5.18;;;19.80;99.90;;;;;;5002001;28;20034;-73
2023/09/28 10:18:47;;;;;;;8.75;5.75;;;20.00;99.90;;;;;;5000722;28;20019;-72
2023/09/28 10:21:14;;;;;;;10.15;5.25;;;20.20;99.90;;;;;;4979238;28;20081;-73
2023/09/28 10:23:41;;;;;;;10.57;5.60;;;20.10;99.90;;;;;;4998343;28;20907;-72
2023/09/28 10:26:17;;;;;;;10.20;5.32;;;20.20;99.90;;;;;;4999118;28;20033;-71
2023/09/28 10:29:03;;;;;;;13.85;5.43;;;20.30;99.90;;;;;;4999260;28;20558;-72
2023/09/28 10:31:30;;;;;;;10.30;5.80;;;20.50;99.90;;;;;;4987478;28;20134;-72
2023/09/28 10:34:04;;;;;;;14.57;6.60;;;20.30;99.90;;;;;;4995719;28;20026;-72
2023/09/28 10:36:32;;;;;;;8.88;4.80;;;20.50;99.90;;;;;;5003997;28;20123;-72
2023/09/28 10:39:11;;;;;;;10.35;5.35;;;20.80;99.90;;;;;;4996278;28;20097;-72
2023/09/28 10:41:38;;;;;;;11.25;4.97;;;20.80;99.90;;;;;;4986891;28;20045;-73
2023/09/28 10:44:25;;;;;;;11.15;5.40;;;20.70;99.90;;;;;;5003752;28;20470;-72
2023/09/28 10:46:51;;;;;;;13.55;5.88;;;20.90;99.90;;;;;;4999972;28;20038;-71
2023/09/28 10:49:24;;;;;;;8.13;5.05;;;20.90;99.90;;;;;;4992666;28;20030;-72
2023/09/28 10:51:52;;;;;;;10.93;5.07;;;21.20;99.90;;;;;;4985453;28;20144;-74
2023/09/28 10:54:19;;;;;;;11.10;4.70;;;21.40;99.90;;;;;;4998749;28;20045;-72
2023/09/28 10:56:48;;;;;;;10.23;5.32;;;21.70;99.90;;;;;;4996507;28;20041;-72
2023/09/28 10:59:15;;;;;;;8.85;5.10;;;21.90;99.90;;;;;;5004504;28;20550;-72
2023/09/28 11:01:45;;;;;;;10.77;5.47;;;22.00;99.90;;;;;;4992263;28;20022;-72
2023/09/28 11:04:14;;;;;;;10.40;5.00;;;22.00;99.90;;;;;;4989492;28;20030;-72
2023/09/28 11:06:43;;;;;;;11.73;5.32;;;22.00;99.90;;;;;;4997822;28;20105;-72
2023/09/28 11:09:10;;;;;;;11.38;5.45;;;22.10;99.90;;;;;;5003997;28;20037;-73
2023/09/28 11:11:40;;;;;;;10.43;5.15;;;22.10;99.90;;;;;;4993966;28;20053;-72
2023/09/28 11:14:06;;;;;;;8.80;4.95;;;22.30;99.90;;;;;;4981504;28;20658;-72
2023/09/28 11:16:34;;;;;;;7.45;4.65;;;22.20;99.90;;;;;;4994190;28;20030;-74
2023/09/28 11:19:00;;;;;;;8.10;4.50;;;22.20;99.90;;;;;;4993343;28;20060;-74
2023/09/28 11:21:28;;;;;;;11.95;5.18;;;22.00;99.90;;;;;;4987270;28;20092;-75
2023/09/28 11:23:54;;;;;;;13.25;5.28;;;22.30;99.90;;;;;;4998704;28;20038;-75
2023/09/28 11:26:22;;;;;;;9.82;4.43;;;22.30;99.90;;;;;;4992862;28;20061;-74
2023/09/28 11:28:49;;;;;;;10.30;4.65;;;22.40;99.90;;;;;;4992330;28;20120;-74
2023/09/28 11:31:15;;;;;;;15.80;5.07;;;22.40;99.90;;;;;;4986196;28;20030;-74
2023/09/28 11:33:44;;;;;;;10.13;4.97;;;22.40;99.90;;;;;;4996042;28;20122;-73
2023/09/28 11:36:16;;;;;;;8.43;4.72;;;22.50;99.90;;;;;;5004075;28;20038;-74
2023/09/28 11:38:44;;;;;;;11.65;5.18;;;22.70;99.90;;;;;;4998349;28;20089;-74
2023/09/28 11:41:10;;;;;;;10.55;4.38;;;22.80;99.90;;;;;;4987302;28;20431;-74
2023/09/28 11:43:47;;;;;;;10.15;4.93;;;22.90;99.90;;;;;;4997672;28;20061;-74
2023/09/28 11:46:25;;;;;;;9.82;5.05;;;22.90;99.90;;;;;;4989165;28;20042;-74
2023/09/28 11:49:10;;;;;;;10.68;4.82;;;23.00;99.80;;;;;;4992245;28;20030;-73
2023/09/28 11:51:39;;;;;;;10.73;4.80;;;23.10;99.70;;;;;;4989250;28;20124;-73
2023/09/28 11:54:12;;;;;;;8.02;4.72;;;22.90;99.90;;;;;;4994412;28;20026;-75
2023/09/28 11:56:42;;;;;;;14.43;6.10;;;23.10;99.90;;;;;;4982494;28;21198;-73
2023/09/28 11:59:09;;;;;;;10.82;4.28;;;23.30;99.90;;;;;;4984846;28;20100;-73
2023/09/28 12:01:35;;;;;;;7.45;4.85;;;23.30;99.60;;;;;;4999503;28;20138;-74
2023/09/28 12:04:01;;;;;;;7.25;4.72;;;23.00;99.70;;;;;;4994744;28;20120;-73
2023/09/28 12:06:28;;;;;;;8.95;4.93;;;23.20;99.90;;;;;;4990733;28;20074;-73
2023/09/28 12:08:54;;;;;;;8.77;4.90;;;23.40;99.90;;;;;;4989829;28;20034;-72
2023/09/28 12:11:21;;;;;;;14.02;5.25;;;23.50;99.90;;;;;;5002064;28;20057;-73
2023/09/28 12:13:47;;;;;;;8.10;4.57;;;23.60;99.90;;;;;;4991899;28;20049;-73
2023/09/28 12:16:13;;;;;;;8.95;5.10;;;23.70;99.90;;;;;;4968670;28;20042;-73
2023/09/28 12:18:38;;;;;;;8.05;4.57;;;23.70;99.90;;;;;;4996896;28;20430;-73
2023/09/28 12:21:05;;;;;;;6.45;4.43;;;23.60;99.90;;;;;;4999283;28;20017;-74
2023/09/28 12:23:31;;;;;;;11.68;4.72;;;23.60;99.50;;;;;;4997458;28;20038;-74
2023/09/28 12:25:57;;;;;;;11.38;4.97;;;23.70;99.30;;;;;;4985016;28;20128;-73
2023/09/28 12:28:23;;;;;;;8.43;4.88;;;23.80;99.60;;;;;;4982137;28;20077;-73
2023/09/28 12:30:49;;;;;;;10.43;4.93;;;23.70;98.80;;;;;;4989310;28;20081;-74
2023/09/28 12:33:14;;;;;;;8.90;4.38;;;23.70;99.90;;;;;;4992656;28;20026;-74
2023/09/28 12:35:40;;;;;;;8.90;5.10;;;24.00;99.80;;;;;;4994517;28;20026;-74
2023/09/28 12:38:09;;;;;;;9.07;4.72;;;24.00;99.80;;;;;;4998662;28;20060;-73
2023/09/28 12:40:35;;;;;;;11.85;4.53;;;24.10;98.80;;;;;;4986726;28;20488;-73
2023/09/28 12:43:05;;;;;;;10.35;4.72;;;24.00;98.70;;;;;;4998046;28;20443;-73
2023/09/28 12:45:38;;;;;;;7.93;4.28;;;24.00;98.70;;;;;;4999861;28;20048;-73